Time;durP1;ratioP1;P1;durP2;ratioP2;P2;SDS_P1;SDS_P2;PMS_P1;PMS_P2;Temp;Humidity;BMP_temperature;BMP_pressure;BME280_temperature;BME280_humidity;BME280_pressure;Samples;Min_cycle;Max_cycle;Signal;HPM_P1;HPM_P2
2023/06/02 00:01:01;;;;;;;4.50;4.10;;;24.50;49.70;;;;;;6184438;23;20446;-69
2023/06/02 00:03:34;;;;;;;4.90;4.10;;;24.50;49.70;;;;;;6184585;23;20124;-70
2023/06/02 00:06:01;;;;;;;4.20;3.80;;;24.50;49.80;;;;;;6184381;23;20784;-68
2023/06/02 00:08:27;;;;;;;3.87;3.57;;;24.50;49.80;;;;;;6158046;23;20375;-69
2023/06/02 00:10:53;;;;;;;3.63;3.33;;;24.50;49.80;;;;;;6184373;23;20402;-69
2023/06/02 00:13:19;;;;;;;4.50;4.10;;;24.50;49.80;;;;;;6184688;23;20378;-70
2023/06/02 00:15:45;;;;;;;4.07;3.77;;;24.50;49.80;;;;;;6184429;23;20383;-69
2023/06/02 00:18:10;;;;;;;3.70;3.37;;;24.50;49.80;;;;;;6184320;23;20714;-69
2023/06/02 00:20:36;;;;;;;3.83;3.43;;;24.50;49.80;;;;;;6184377;23;20226;-68
2023/06/02 00:23:02;;;;;;;4.10;3.60;;;24.50;49.80;;;;;;6184579;23;20171;-69
2023/06/02 00:25:28;;;;;;;4.33;3.87;;;24.50;49.80;;;;;;6184584;23;20566;-69
2023/06/02 00:27:54;;;;;;;4.50;3.67;;;24.50;49.90;;;;;;6184586;23;20456;-68
2023/06/02 00:30:19;;;;;;;4.13;3.73;;;24.50;49.80;;;;;;6184277;23;20382;-69
2023/06/02 00:32:45;;;;;;;4.00;3.50;;;24.50;49.80;;;;;;6184313;23;20156;-69
2023/06/02 00:35:10;;;;;;;3.40;3.03;;;24.50;49.90;;;;;;6184187;23;20518;-69
2023/06/02 00:37:36;;;;;;;4.07;3.10;;;24.40;49.80;;;;;;6182698;23;20159;-69
2023/06/02 00:40:03;;;;;;;4.10;3.50;;;24.50;49.80;;;;;;6184321;23;20159;-69
2023/06/02 00:42:29;;;;;;;3.80;3.33;;;24.40;49.80;;;;;;6184093;23;20254;-69
2023/06/02 00:44:55;;;;;;;4.47;3.47;;;24.40;49.80;;;;;;6184152;23;20890;-69
2023/06/02 00:47:20;;;;;;;5.20;3.70;;;24.40;49.90;;;;;;6184222;23;20430;-68
2023/06/02 00:49:46;;;;;;;4.23;3.27;;;24.40;49.90;;;;;;6184141;23;20657;-70
2023/06/02 00:52:15;;;;;;;5.03;3.80;;;24.40;49.90;;;;;;6184151;23;20510;-69
2023/06/02 00:54:40;;;;;;;4.20;3.80;;;24.40;49.90;;;;;;6183861;23;20163;-69
2023/06/02 00:57:07;;;;;;;4.00;3.70;;;24.40;50.00;;;;;;6184048;23;20486;-68
2023/06/02 00:59:33;;;;;;;3.50;3.20;;;24.40;49.90;;;;;;6184075;23;20168;-69
2023/06/02 01:01:59;;;;;;;4.73;4.27;;;24.40;49.90;;;;;;6183972;23;20420;-69
2023/06/02 01:04:25;;;;;;;5.50;4.37;;;24.40;50.00;;;;;;6183955;23;20168;-69
2023/06/02 01:06:52;;;;;;;5.30;3.77;;;24.40;49.90;;;;;;6183970;23;20402;-69
2023/06/02 01:09:19;;;;;;;4.63;3.93;;;24.40;50.00;;;;;;6183761;23;20745;-69
2023/06/02 01:11:46;;;;;;;3.90;3.33;;;24.40;50.00;;;;;;6184061;23;20378;-68
2023/06/02 01:14:13;;;;;;;3.57;3.27;;;24.40;49.90;;;;;;6183997;23;20426;-69
2023/06/02 01:16:39;;;;;;;3.80;3.47;;;24.40;50.10;;;;;;6183999;23;20367;-69
2023/06/02 01:19:06;;;;;;;4.30;3.90;;;24.40;50.00;;;;;;6157491;23;20382;-69
2023/06/02 01:21:37;;;;;;;3.97;3.57;;;24.40;50.00;;;;;;6184122;23;20267;-69
2023/06/02 01:24:03;;;;;;;4.63;4.10;;;24.40;50.00;;;;;;6183951;23;20407;-68
2023/06/02 01:26:34;;;;;;;3.60;3.30;;;24.40;50.00;;;;;;6184266;23;20395;-68
2023/06/02 01:29:00;;;;;;;3.70;3.40;;;24.40;50.00;;;;;;6184023;23;20363;-71
2023/06/02 01:31:30;;;;;;;4.23;3.83;;;24.40;50.00;;;;;;6183971;23;20714;-69
2023/06/02 01:34:10;;;;;;;4.03;3.30;;;24.40;50.00;;;;;;6184272;23;20477;-70
2023/06/02 01:36:38;;;;;;;5.20;4.00;;;24.40;50.00;;;;;;6184062;23;20366;-69
2023/06/02 01:39:06;;;;;;;3.97;3.67;;;24.40;50.10;;;;;;6183813;23;20449;-70
2023/06/02 01:41:34;;;;;;;3.90;3.33;;;24.40;50.00;;;;;;6183724;23;20469;-70
2023/06/02 01:44:02;;;;;;;3.67;3.30;;;24.40;50.10;;;;;;6183821;23;20391;-69
2023/06/02 01:46:28;;;;;;;3.37;3.07;;;24.30;50.00;;;;;;6183922;23;20378;-70
2023/06/02 01:48:55;;;;;;;3.67;3.37;;;24.30;50.00;;;;;;6183931;23;20722;-69
2023/06/02 01:51:21;;;;;;;4.40;3.70;;;24.30;50.00;;;;;;6183829;23;20385;-70
2023/06/02 01:53:46;;;;;;;4.13;3.80;;;24.30;50.00;;;;;;6183792;23;20482;-68
2023/06/02 01:56:12;;;;;;;4.13;3.80;;;24.30;50.10;;;;;;6183777;23;20194;-69
2023/06/02 01:58:38;;;;;;;4.40;4.00;;;24.30;50.20;;;;;;6183832;23;20172;-69
2023/06/02 02:01:04;;;;;;;3.63;3.33;;;24.30;50.20;;;;;;6157274;23;20195;-69
2023/06/02 02:03:30;;;;;;;4.93;4.53;;;24.30;50.20;;;;;;6183718;23;20222;-69
2023/06/02 02:05:56;;;;;;;4.27;3.87;;;24.30;50.20;;;;;;6183640;23;20386;-70
2023/06/02 02:08:22;;;;;;;3.83;3.53;;;24.30;50.10;;;;;;6184110;23;20382;-69
2023/06/02 02:10:48;;;;;;;6.07;4.00;;;24.30;50.20;;;;;;6184091;23;20853;-70
2023/06/02 02:13:13;;;;;;;3.73;3.43;;;24.30;50.30;;;;;;6184020;23;20210;-69
2023/06/02 02:15:39;;;;;;;3.40;3.10;;;24.40;50.40;;;;;;6183761;23;20179;-69
2023/06/02 02:18:05;;;;;;;3.90;3.60;;;24.30;50.30;;;;;;6157400;23;20210;-69
2023/06/02 02:20:31;;;;;;;4.03;3.63;;;24.30;50.30;;;;;;6183754;23;20159;-69
2023/06/02 02:22:56;;;;;;;4.37;3.97;;;24.30;50.30;;;;;;6185287;23;20241;-69
2023/06/02 02:25:22;;;;;;;3.67;3.37;;;24.30;50.30;;;;;;6185414;23;20615;-69
2023/06/02 02:27:48;;;;;;;4.77;3.77;;;24.30;50.30;;;;;;6185432;23;20158;-70
2023/06/02 02:30:14;;;;;;;3.50;3.20;;;24.30;50.30;;;;;;6185419;23;20406;-70
2023/06/02 02:32:43;;;;;;;4.10;3.70;;;24.30;50.30;;;;;;6185489;23;20151;-69
2023/06/02 02:35:09;;;;;;;4.00;3.70;;;24.30;50.30;;;;;;6185298;23;20645;-69
2023/06/02 02:37:38;;;;;;;4.03;3.73;;;24.30;50.40;;;;;;6185271;23;20379;-70
2023/06/02 02:40:05;;;;;;;4.03;3.50;;;24.30;50.30;;;;;;6185360;23;20462;-69
2023/06/02 02:42:33;;;;;;;4.10;3.77;;;24.30;50.40;;;;;;6185160;23;20426;-69
2023/06/02 02:45:00;;;;;;;4.53;4.13;;;24.30;50.30;;;;;;6185117;23;20391;-70
2023/06/02 02:47:26;;;;;;;3.83;3.43;;;24.30;50.30;;;;;;6185396;23;20383;-69
2023/06/02 02:49:51;;;;;;;4.10;3.70;;;24.30;50.30;;;;;;6184538;23;20710;-70
2023/06/02 02:52:17;;;;;;;4.03;3.70;;;24.30;50.30;;;;;;6184032;23;20175;-70
2023/06/02 02:54:43;;;;;;;3.80;3.50;;;24.30;50.30;;;;;;6184604;23;20178;-69
2023/06/02 02:57:08;;;;;;;3.73;3.43;;;24.30;50.40;;;;;;6183637;23;20179;-69
2023/06/02 02:59:35;;;;;;;4.10;3.70;;;24.30;50.30;;;;;;6185250;23;20159;-69
2023/06/02 03:02:02;;;;;;;4.33;3.93;;;24.30;50.10;;;;;;6185025;23;20182;-69
2023/06/02 03:04:27;;;;;;;4.07;3.57;;;24.30;50.10;;;;;;6184973;23;20387;-69
2023/06/02 03:06:54;;;;;;;4.13;3.70;;;24.30;50.10;;;;;;6185023;23;20382;-69
2023/06/02 03:09:20;;;;;;;4.27;3.87;;;24.30;50.00;;;;;;6185061;23;20634;-69
2023/06/02 03:11:46;;;;;;;4.87;4.03;;;24.30;50.40;;;;;;6185012;23;20413;-69
2023/06/02 03:14:12;;;;;;;4.47;4.07;;;24.30;49.70;;;;;;6184939;23;20198;-69
2023/06/02 03:16:41;;;;;;;4.40;4.00;;;24.30;49.60;;;;;;6184971;23;20454;-69
2023/06/02 03:19:10;;;;;;;4.57;4.20;;;24.30;49.50;;;;;;6184873;23;20403;-69
2023/06/02 03:21:41;;;;;;;4.60;4.20;;;24.20;49.30;;;;;;6185210;23;20501;-69
2023/06/02 03:24:18;;;;;;;4.47;4.10;;;24.20;49.30;;;;;;6184906;23;20452;-69
2023/06/02 03:26:44;;;;;;;4.50;4.10;;;24.20;49.20;;;;;;6185262;23;20747;-70
2023/06/02 03:29:10;;;;;;;4.20;3.90;;;24.20;49.20;;;;;;6184835;23;20379;-69
2023/06/02 03:31:36;;;;;;;4.83;4.40;;;24.20;49.10;;;;;;6184759;23;21040;-69
2023/06/02 03:34:03;;;;;;;4.87;4.40;;;24.20;49.10;;;;;;6184818;23;20956;-70
2023/06/02 03:36:29;;;;;;;4.03;3.73;;;24.20;49.10;;;;;;6184824;23;20941;-69
2023/06/02 03:38:55;;;;;;;4.67;4.27;;;24.20;49.00;;;;;;6184736;23;20403;-69
2023/06/02 03:41:21;;;;;;;4.40;4.00;;;24.20;49.00;;;;;;6184674;23;20486;-69
2023/06/02 03:43:47;;;;;;;5.00;4.60;;;24.20;48.90;;;;;;6185025;23;20222;-70
2023/06/02 03:46:13;;;;;;;4.40;4.00;;;24.20;48.90;;;;;;6184698;23;20375;-69
2023/06/02 03:48:38;;;;;;;4.70;4.30;;;24.20;48.80;;;;;;6184690;23;20144;-69
2023/06/02 03:51:04;;;;;;;4.20;3.90;;;24.20;48.80;;;;;;6184730;23;20194;-68
2023/06/02 03:53:30;;;;;;;5.50;4.40;;;24.10;48.70;;;;;;6184561;23;20492;-70
2023/06/02 03:55:56;;;;;;;4.73;4.20;;;24.10;48.70;;;;;;6184660;23;20169;-69
2023/06/02 03:58:23;;;;;;;4.20;3.80;;;24.10;48.70;;;;;;6184683;23;20391;-69
2023/06/02 04:00:49;;;;;;;6.50;4.00;;;24.10;48.70;;;;;;6184498;23;20151;-68
2023/06/02 04:03:14;;;;;;;5.13;4.63;;;24.10;48.70;;;;;;6184398;23;20419;-69
2023/06/02 04:05:41;;;;;;;5.23;4.83;;;24.10;48.80;;;;;;6184557;23;20642;-69
2023/06/02 04:08:07;;;;;;;5.20;4.73;;;24.10;48.90;;;;;;6184488;23;20156;-68
2023/06/02 04:10:33;;;;;;;3.80;3.50;;;24.10;48.80;;;;;;6184463;23;20371;-69
2023/06/02 04:12:58;;;;;;;4.50;4.10;;;24.10;48.70;;;;;;6184359;23;20371;-68
2023/06/02 04:15:24;;;;;;;5.73;4.80;;;24.10;48.70;;;;;;6157788;23;20414;-68
2023/06/02 04:17:50;;;;;;;4.03;3.73;;;24.10;49.20;;;;;;6184985;23;20155;-70
2023/06/02 04:20:15;;;;;;;4.77;4.03;;;24.10;48.60;;;;;;6184438;23;20183;-70
2023/06/02 04:22:41;;;;;;;5.00;4.33;;;24.10;48.60;;;;;;6184629;23;20182;-68
2023/06/02 04:25:07;;;;;;;4.60;4.20;;;24.10;48.70;;;;;;6184290;23;20171;-69
2023/06/02 04:27:33;;;;;;;4.93;4.53;;;24.10;48.70;;;;;;6157868;23;20152;-70
2023/06/02 04:29:58;;;;;;;4.37;3.97;;;24.10;48.90;;;;;;6184302;23;20379;-69
2023/06/02 04:32:24;;;;;;;4.60;4.20;;;24.10;49.00;;;;;;6184282;23;20159;-70
2023/06/02 04:34:50;;;;;;;5.10;4.13;;;24.10;49.00;;;;;;6184196;23;20175;-70
2023/06/02 04:37:16;;;;;;;4.40;4.00;;;24.10;49.10;;;;;;6184303;23;20461;-69
2023/06/02 04:39:46;;;;;;;4.50;4.10;;;24.10;49.10;;;;;;6184181;23;20473;-70
2023/06/02 04:42:13;;;;;;;4.40;4.00;;;24.10;49.10;;;;;;6184133;23;20178;-68
2023/06/02 04:44:39;;;;;;;4.53;4.13;;;24.10;49.10;;;;;;6183687;23;20395;-70
2023/06/02 04:47:05;;;;;;;4.20;3.80;;;24.10;49.10;;;;;;6184161;23;20371;-70
2023/06/02 04:49:31;;;;;;;4.50;4.10;;;24.10;49.10;;;;;;6158160;23;20379;-69
2023/06/02 04:51:57;;;;;;;4.40;4.00;;;24.10;49.00;;;;;;6184142;23;20718;-68
2023/06/02 04:54:23;;;;;;;4.13;3.83;;;24.10;49.00;;;;;;6184005;23;20217;-69
2023/06/02 04:56:49;;;;;;;4.50;4.10;;;24.10;49.00;;;;;;6183983;23;20951;-69
2023/06/02 04:59:14;;;;;;;4.93;4.53;;;24.10;49.00;;;;;;6184402;23;20148;-70
2023/06/02 05:01:40;;;;;;;5.57;4.37;;;24.10;49.00;;;;;;6183934;23;20176;-68
2023/06/02 05:04:06;;;;;;;4.30;3.90;;;24.10;49.00;;;;;;6183977;23;21140;-69
2023/06/02 05:06:32;;;;;;;4.30;3.90;;;24.10;49.00;;;;;;6184369;23;20155;-70
2023/06/02 05:08:57;;;;;;;4.90;4.50;;;24.10;49.00;;;;;;6183996;23;20199;-70
2023/06/02 05:11:23;;;;;;;4.50;4.10;;;24.10;49.10;;;;;;6184036;23;20461;-69
2023/06/02 05:13:48;;;;;;;5.03;4.47;;;24.20;49.10;;;;;;6183980;23;20171;-69
2023/06/02 05:16:14;;;;;;;6.70;4.60;;;24.20;49.10;;;;;;6184017;23;20661;-69
2023/06/02 05:18:40;;;;;;;4.60;4.20;;;24.20;49.10;;;;;;6183997;23;20151;-69
2023/06/02 05:21:05;;;;;;;4.50;4.10;;;24.10;49.00;;;;;;6183947;23;20392;-69
2023/06/02 05:23:31;;;;;;;4.43;4.00;;;24.20;49.10;;;;;;6157455;23;20152;-68
2023/06/02 05:25:57;;;;;;;4.90;4.50;;;24.20;49.10;;;;;;6184032;23;20525;-70
2023/06/02 05:28:22;;;;;;;5.23;3.93;;;24.10;49.00;;;;;;6184037;23;20143;-69
2023/06/02 05:30:48;;;;;;;5.57;4.00;;;24.20;49.10;;;;;;6184309;23;20262;-68
2023/06/02 05:33:13;;;;;;;5.97;4.37;;;24.20;49.10;;;;;;6184269;23;20156;-69
2023/06/02 05:35:39;;;;;;;4.97;4.20;;;24.20;49.10;;;;;;6183778;23;20226;-69
2023/06/02 05:38:05;;;;;;;4.70;3.60;;;24.20;49.10;;;;;;6183801;23;20235;-71
2023/06/02 05:40:30;;;;;;;4.33;3.93;;;24.20;49.00;;;;;;6183852;23;20152;-70
2023/06/02 05:42:56;;;;;;;5.90;5.00;;;24.20;49.00;;;;;;6183781;23;20187;-69
2023/06/02 05:45:21;;;;;;;3.83;3.53;;;24.20;49.00;;;;;;6183757;23;20657;-70
2023/06/02 05:47:48;;;;;;;4.67;4.23;;;24.20;49.00;;;;;;6183863;23;20144;-70
2023/06/02 05:50:14;;;;;;;4.73;4.03;;;24.20;49.00;;;;;;6183853;23;20144;-69
2023/06/02 05:52:40;;;;;;;4.77;4.10;;;24.20;48.90;;;;;;6183888;23;20378;-69
2023/06/02 05:55:06;;;;;;;3.93;3.63;;;24.20;49.00;;;;;;6157730;23;20840;-67
2023/06/02 05:57:31;;;;;;;3.70;3.40;;;24.20;48.90;;;;;;6185670;23;20167;-68
2023/06/02 05:59:57;;;;;;;3.97;3.60;;;24.20;48.90;;;;;;6185760;23;20614;-69
2023/06/02 06:02:22;;;;;;;4.73;4.13;;;24.20;48.90;;;;;;6185679;23;20179;-67
2023/06/02 06:04:48;;;;;;;4.40;3.90;;;24.20;48.90;;;;;;6185629;23;20164;-68
2023/06/02 06:07:13;;;;;;;3.93;3.53;;;24.20;48.80;;;;;;6185952;23;20587;-68
2023/06/02 06:09:39;;;;;;;4.27;3.87;;;24.20;48.80;;;;;;6185628;23;20235;-69
2023/06/02 06:12:05;;;;;;;4.07;3.77;;;24.20;48.80;;;;;;6185506;23;20154;-68
2023/06/02 06:14:31;;;;;;;4.83;3.90;;;24.20;48.80;;;;;;6185553;23;20178;-69
2023/06/02 06:16:56;;;;;;;4.53;3.23;;;24.20;48.80;;;;;;6185885;23;20383;-69
2023/06/02 06:19:22;;;;;;;5.33;3.60;;;24.20;48.80;;;;;;6158985;23;20167;-69
2023/06/02 06:21:47;;;;;;;5.40;3.83;;;24.20;48.90;;;;;;6185443;23;20179;-69
2023/06/02 06:24:13;;;;;;;4.30;3.90;;;24.20;48.90;;;;;;6185400;23;20168;-69
2023/06/02 06:26:39;;;;;;;4.90;3.60;;;24.20;48.90;;;;;;6185489;23;20148;-69
2023/06/02 06:29:05;;;;;;;3.87;3.57;;;24.20;49.00;;;;;;6185710;23;20151;-70
2023/06/02 06:31:32;;;;;;;4.57;4.17;;;24.20;49.10;;;;;;6185378;23;20378;-69
2023/06/02 06:33:58;;;;;;;4.33;3.93;;;24.20;49.20;;;;;;6185303;23;20179;-70
2023/06/02 06:36:23;;;;;;;4.60;3.50;;;24.20;49.20;;;;;;6185321;23;20716;-69
2023/06/02 06:38:49;;;;;;;4.50;3.80;;;24.20;49.30;;;;;;6185332;23;20367;-69
2023/06/02 06:41:15;;;;;;;5.47;3.67;;;24.20;49.30;;;;;;6185262;23;20659;-69
2023/06/02 06:43:40;;;;;;;4.30;3.50;;;24.20;49.30;;;;;;6185180;23;20168;-68
2023/06/02 06:46:06;;;;;;;5.57;3.73;;;24.20;49.90;;;;;;6185255;23;20566;-69
2023/06/02 06:48:31;;;;;;;3.67;3.37;;;24.20;49.40;;;;;;6185301;23;20163;-69
2023/06/02 06:50:57;;;;;;;4.47;3.37;;;24.20;49.30;;;;;;6185232;23;20231;-69
2023/06/02 06:53:23;;;;;;;4.10;3.60;;;24.20;49.30;;;;;;6185411;23;20151;-69
2023/06/02 06:55:48;;;;;;;3.60;3.30;;;24.20;49.30;;;;;;6158747;23;20186;-68
2023/06/02 06:58:14;;;;;;;4.00;3.60;;;24.20;49.30;;;;;;6185592;23;20167;-70
2023/06/02 07:00:40;;;;;;;3.50;3.20;;;24.20;49.90;;;;;;6184996;23;20501;-68
2023/06/02 07:03:05;;;;;;;3.07;2.77;;;24.20;49.20;;;;;;6158586;23;20195;-69
2023/06/02 07:05:31;;;;;;;3.50;2.90;;;24.20;49.20;;;;;;6158772;23;20180;-68
2023/06/02 07:07:57;;;;;;;4.00;3.60;;;24.20;49.20;;;;;;6184799;23;20222;-70
2023/06/02 07:10:23;;;;;;;3.37;3.07;;;24.20;49.20;;;;;;6185105;23;20140;-68
2023/06/02 07:12:48;;;;;;;3.53;3.23;;;24.20;49.20;;;;;;6185027;23;20151;-69
2023/06/02 07:15:14;;;;;;;3.77;3.47;;;24.20;49.20;;;;;;6184945;23;20705;-69
2023/06/02 07:17:41;;;;;;;4.10;3.80;;;24.20;49.20;;;;;;6185275;23;20170;-68
2023/06/02 07:20:12;;;;;;;3.73;3.33;;;24.20;49.20;;;;;;6158550;23;20164;-68
2023/06/02 07:22:38;;;;;;;4.23;3.83;;;24.20;49.10;;;;;;6184941;23;20509;-69
2023/06/02 07:25:04;;;;;;;3.50;3.20;;;24.20;49.20;;;;;;6184839;23;20412;-69
2023/06/02 07:27:31;;;;;;;3.60;3.30;;;24.20;49.20;;;;;;6185242;23;20380;-67
2023/06/02 07:29:56;;;;;;;4.33;3.93;;;24.20;49.10;;;;;;6185124;23;20392;-69
2023/06/02 07:32:22;;;;;;;4.53;3.70;;;24.20;49.10;;;;;;6184722;23;20384;-68
2023/06/02 07:34:48;;;;;;;3.50;3.20;;;24.20;49.10;;;;;;6184734;23;20178;-69
2023/06/02 07:37:14;;;;;;;4.00;3.70;;;24.20;49.10;;;;;;6184847;23;20152;-68
2023/06/02 07:39:39;;;;;;;3.77;3.47;;;24.20;49.10;;;;;;6184758;23;20159;-69
2023/06/02 07:42:05;;;;;;;4.23;3.80;;;24.20;49.00;;;;;;6184546;23;20175;-68
2023/06/02 07:44:31;;;;;;;4.00;3.50;;;24.20;49.00;;;;;;6184592;23;20214;-68
2023/06/02 07:46:56;;;;;;;4.00;3.40;;;24.20;49.00;;;;;;6184698;23;20380;-69
2023/06/02 07:49:22;;;;;;;4.60;3.73;;;24.20;49.00;;;;;;6184648;23;20622;-69
2023/06/02 07:51:48;;;;;;;3.60;3.30;;;24.20;48.90;;;;;;6184644;23;20259;-67
2023/06/02 07:54:13;;;;;;;4.90;3.40;;;24.20;48.90;;;;;;6184825;23;20172;-69
2023/06/02 07:56:39;;;;;;;4.10;3.40;;;24.20;48.90;;;;;;6184470;23;20239;-68
2023/06/02 07:59:05;;;;;;;4.30;3.87;;;24.20;48.90;;;;;;6184586;23;20657;-69
2023/06/02 08:01:30;;;;;;;3.33;3.03;;;24.20;48.80;;;;;;6184504;23;20584;-68
2023/06/02 08:03:56;;;;;;;3.43;3.13;;;24.20;48.80;;;;;;6184434;23;20623;-69
2023/06/02 08:06:21;;;;;;;4.37;3.70;;;24.20;48.80;;;;;;6184560;23;20335;-69
2023/06/02 08:08:47;;;;;;;4.20;3.73;;;24.20;48.70;;;;;;6184510;23;20155;-69
2023/06/02 08:11:13;;;;;;;3.83;3.53;;;24.20;48.80;;;;;;6184807;23;20160;-69
2023/06/02 08:13:38;;;;;;;4.20;3.47;;;24.20;48.80;;;;;;6184585;23;20172;-68
2023/06/02 08:16:05;;;;;;;4.00;3.60;;;24.20;48.90;;;;;;6158105;23;20230;-68
2023/06/02 08:18:30;;;;;;;3.60;3.30;;;24.20;48.90;;;;;;6184387;23;20171;-68
2023/06/02 08:20:56;;;;;;;5.90;4.13;;;24.20;48.90;;;;;;6184359;23;20372;-69
2023/06/02 08:23:22;;;;;;;3.40;3.10;;;24.20;49.00;;;;;;6184250;23;20179;-69
2023/06/02 08:25:48;;;;;;;5.03;3.40;;;24.20;49.00;;;;;;6184259;23;20144;-69
2023/06/02 08:28:13;;;;;;;3.97;3.37;;;24.20;49.00;;;;;;6184277;23;20154;-68
2023/06/02 08:30:42;;;;;;;5.17;4.30;;;24.20;48.90;;;;;;6184204;23;20454;-69
2023/06/02 08:33:08;;;;;;;3.60;3.30;;;24.20;48.90;;;;;;6184222;23;20231;-68
2023/06/02 08:35:36;;;;;;;4.27;3.87;;;24.20;48.90;;;;;;6184094;23;20433;-69
2023/06/02 08:38:03;;;;;;;3.57;3.27;;;24.20;48.90;;;;;;6184173;23;20862;-68
2023/06/02 08:40:36;;;;;;;3.93;3.57;;;24.20;48.80;;;;;;6184134;23;20439;-69
2023/06/02 08:43:06;;;;;;;4.03;3.63;;;24.20;48.80;;;;;;6157718;23;20429;-69
2023/06/02 08:45:33;;;;;;;3.67;3.37;;;24.20;48.80;;;;;;6184025;23;20820;-68
2023/06/02 08:48:00;;;;;;;3.33;3.07;;;24.20;48.80;;;;;;6184172;23;20383;-69
2023/06/02 08:50:31;;;;;;;3.27;3.07;;;24.20;48.80;;;;;;6157679;23;20379;-69
2023/06/02 08:53:01;;;;;;;3.00;2.80;;;24.20;48.90;;;;;;6184172;23;20467;-68
2023/06/02 08:55:27;;;;;;;5.87;3.40;;;24.20;48.90;;;;;;6157529;23;20395;-69
2023/06/02 08:57:53;;;;;;;3.83;3.37;;;24.20;48.90;;;;;;6184019;23;20407;-68
2023/06/02 09:00:19;;;;;;;4.43;3.77;;;24.20;48.90;;;;;;6184169;23;20555;-68
2023/06/02 09:02:48;;;;;;;3.60;3.20;;;24.10;48.70;;;;;;6183972;23;20415;-68
2023/06/02 09:05:16;;;;;;;8.50;4.03;;;24.20;48.80;;;;;;6184013;23;20175;-69
2023/06/02 09:07:45;;;;;;;3.30;3.10;;;24.10;48.70;;;;;;6184396;23;20371;-69
2023/06/02 09:10:31;;;;;;;4.60;4.10;;;24.20;48.80;;;;;;6184008;23;20715;-68
2023/06/02 09:12:57;;;;;;;5.47;3.53;;;24.20;48.60;;;;;;6183921;23;20704;-69
2023/06/02 09:15:24;;;;;;;3.60;3.27;;;24.10;48.60;;;;;;6183869;23;20897;-68
2023/06/02 09:17:50;;;;;;;3.83;3.20;;;24.10;48.60;;;;;;6183866;23;20495;-69
2023/06/02 09:20:16;;;;;;;4.20;3.30;;;24.10;48.60;;;;;;6183824;23;20371;-68
2023/06/02 09:22:55;;;;;;;4.10;3.10;;;24.10;48.60;;;;;;6183529;23;20574;-68
2023/06/02 09:25:25;;;;;;;3.40;2.87;;;24.20;48.50;;;;;;6184090;23;20167;-68
2023/06/02 09:27:56;;;;;;;5.37;3.10;;;24.10;48.50;;;;;;6183904;23;20363;-69
2023/06/02 09:30:22;;;;;;;5.90;3.80;;;24.10;48.50;;;;;;6184457;23;20382;-68
2023/06/02 09:32:58;;;;;;;4.50;3.37;;;24.10;48.60;;;;;;6185951;23;20712;-70
2023/06/02 09:35:34;;;;;;;4.30;3.20;;;24.10;48.60;;;;;;6186226;23;20175;-69
2023/06/02 09:38:00;;;;;;;4.00;2.80;;;24.10;48.70;;;;;;6185380;23;20378;-70
2023/06/02 09:40:29;;;;;;;4.67;2.60;;;24.10;48.70;;;;;;6185589;23;20407;-70
2023/06/02 09:42:55;;;;;;;3.50;3.03;;;24.10;48.70;;;;;;6185801;23;20444;-68
2023/06/02 09:45:20;;;;;;;4.60;2.60;;;24.10;48.70;;;;;;6186057;23;20423;-69
2023/06/02 09:47:47;;;;;;;2.70;2.50;;;24.10;48.70;;;;;;6185907;23;20151;-69
2023/06/02 09:50:33;;;;;;;3.57;3.10;;;24.10;49.30;;;;;;6186077;23;20491;-69
2023/06/02 09:53:03;;;;;;;5.77;2.60;;;24.10;48.60;;;;;;6185761;23;20371;-69
2023/06/02 09:55:31;;;;;;;5.77;3.20;;;24.10;48.60;;;;;;6185465;23;20897;-68
2023/06/02 09:57:58;;;;;;;4.03;2.97;;;24.10;48.70;;;;;;6185701;23;20371;-69
2023/06/02 10:00:24;;;;;;;4.20;3.00;;;24.10;48.60;;;;;;6186010;23;20749;-69
2023/06/02 10:02:50;;;;;;;5.40;3.00;;;24.10;48.60;;;;;;6185431;23;20418;-69
2023/06/02 10:05:17;;;;;;;4.30;2.67;;;24.10;48.60;;;;;;6185541;23;20467;-69
2023/06/02 10:08:01;;;;;;;4.17;3.23;;;24.10;48.60;;;;;;6185748;23;20382;-69
2023/06/02 10:10:49;;;;;;;3.90;2.60;;;24.10;48.60;;;;;;6185634;23;20433;-68
2023/06/02 10:13:26;;;;;;;5.77;3.40;;;24.10;48.60;;;;;;6186060;23;20446;-70
2023/06/02 10:15:52;;;;;;;3.80;2.97;;;24.10;48.70;;;;;;6185696;23;20363;-68
2023/06/02 10:18:46;;;;;;;5.00;3.30;;;24.10;48.60;;;;;;6159022;23;20466;-69
2023/06/02 10:21:46;;;;;;;4.07;3.17;;;24.10;48.60;;;;;;6152619;23;20156;-69
2023/06/02 10:24:37;;;;;;;3.83;2.90;;;24.10;48.60;;;;;;6185414;23;20447;-69
2023/06/02 10:27:43;;;;;;;4.27;2.90;;;24.10;48.80;;;;;;6185539;23;20462;-69
2023/06/02 10:30:09;;;;;;;3.40;3.10;;;24.10;48.80;;;;;;6094282;23;20409;-69
2023/06/02 10:32:48;;;;;;;3.37;2.90;;;24.10;48.80;;;;;;6094164;23;20373;-69
2023/06/02 10:35:15;;;;;;;4.50;2.77;;;24.10;48.80;;;;;;6094230;23;20739;-69
2023/06/02 10:37:40;;;;;;;3.30;3.00;;;24.10;48.90;;;;;;6094216;23;20460;-68
2023/06/02 10:40:10;;;;;;;3.87;3.13;;;24.10;48.90;;;;;;6094287;23;20413;-70
2023/06/02 10:42:37;;;;;;;3.40;3.10;;;24.10;48.90;;;;;;6093468;23;20223;-68
2023/06/02 10:45:17;;;;;;;4.03;2.80;;;24.10;48.90;;;;;;6093999;23;20402;-70
2023/06/02 10:47:42;;;;;;;3.30;2.63;;;24.10;48.90;;;;;;6094062;23;20389;-69
2023/06/02 10:50:10;;;;;;;6.70;2.90;;;24.10;48.90;;;;;;6069949;23;20382;-69
2023/06/02 10:53:00;;;;;;;6.27;3.47;;;24.10;48.90;;;;;;6094117;23;20165;-69
2023/06/02 10:55:30;;;;;;;3.43;3.00;;;24.10;48.90;;;;;;6093789;23;20397;-70
2023/06/02 10:58:03;;;;;;;2.97;2.43;;;24.10;49.00;;;;;;6094190;23;20833;-68
2023/06/02 11:00:32;;;;;;;3.23;2.27;;;24.10;49.00;;;;;;6126009;23;20374;-69
2023/06/02 11:03:13;;;;;;;3.53;2.70;;;24.10;49.00;;;;;;6185096;23;20830;-68
2023/06/02 11:05:39;;;;;;;3.13;2.90;;;24.10;49.00;;;;;;6184987;23;20758;-69
2023/06/02 11:08:11;;;;;;;3.10;2.80;;;24.10;49.00;;;;;;6185116;23;20426;-70
2023/06/02 11:10:51;;;;;;;2.93;2.70;;;24.10;49.00;;;;;;6185073;23;20227;-69
2023/06/02 11:13:20;;;;;;;2.53;2.33;;;24.10;49.00;;;;;;6185000;23;20363;-68
2023/06/02 11:15:56;;;;;;;2.83;2.63;;;24.10;49.00;;;;;;6158647;23;20813;-68
2023/06/02 11:18:22;;;;;;;5.03;3.00;;;24.10;49.00;;;;;;6185017;23;20413;-69
2023/06/02 11:20:55;;;;;;;3.33;2.77;;;24.10;49.10;;;;;;6158507;23;20387;-69
2023/06/02 11:23:21;;;;;;;2.80;2.60;;;24.10;49.10;;;;;;6184700;23;20172;-69
2023/06/02 11:25:48;;;;;;;3.10;2.80;;;24.10;49.20;;;;;;6184772;23;20379;-69
2023/06/02 11:28:22;;;;;;;4.63;2.80;;;24.10;49.20;;;;;;6184907;23;20374;-70
2023/06/02 11:31:07;;;;;;;3.33;2.63;;;24.10;49.20;;;;;;6185160;23;20449;-69
2023/06/02 11:33:34;;;;;;;3.90;2.73;;;24.10;49.20;;;;;;6184775;23;20438;-70
2023/06/02 11:36:01;;;;;;;2.60;2.40;;;24.10;49.20;;;;;;6185076;23;20375;-68
2023/06/02 11:38:31;;;;;;;4.47;2.67;;;24.10;49.20;;;;;;6184756;23;20377;-71
2023/06/02 11:41:14;;;;;;;2.83;2.50;;;24.10;49.30;;;;;;6184790;23;20355;-69
2023/06/02 11:43:45;;;;;;;3.03;2.73;;;24.10;49.30;;;;;;6185043;23;20401;-68
2023/06/02 11:46:12;;;;;;;3.43;2.90;;;24.10;49.30;;;;;;6184826;23;20362;-69
2023/06/02 11:48:40;;;;;;;2.90;2.43;;;24.10;49.30;;;;;;6184666;23;20367;-69
2023/06/02 11:51:06;;;;;;;3.40;2.33;;;24.10;49.40;;;;;;6184657;23;20371;-69
2023/06/02 11:53:32;;;;;;;2.93;2.60;;;24.20;49.40;;;;;;6184394;23;20454;-69
2023/06/02 11:55:59;;;;;;;3.00;2.73;;;24.10;49.40;;;;;;6184703;23;20445;-70
2023/06/02 11:58:27;;;;;;;3.23;2.70;;;24.20;49.40;;;;;;6185016;23;20834;-70
2023/06/02 12:01:17;;;;;;;3.80;2.60;;;24.10;49.40;;;;;;6133777;23;20741;-68
2023/06/02 12:04:04;;;;;;;5.20;2.80;;;24.20;49.40;;;;;;6184495;23;20489;-70
2023/06/02 12:06:34;;;;;;;2.70;2.50;;;24.10;49.40;;;;;;6184637;23;20816;-70
2023/06/02 12:09:11;;;;;;;2.87;2.57;;;24.10;49.40;;;;;;6184482;23;20359;-68
2023/06/02 12:11:37;;;;;;;3.70;2.60;;;24.10;49.40;;;;;;6158053;23;20718;-68
2023/06/02 12:14:04;;;;;;;3.77;2.80;;;24.10;49.50;;;;;;6157884;23;20405;-69
2023/06/02 12:16:31;;;;;;;3.90;2.67;;;24.10;49.50;;;;;;6184362;23;20147;-67
2023/06/02 12:19:20;;;;;;;3.00;2.67;;;24.10;49.50;;;;;;6184382;23;20375;-69
2023/06/02 12:21:47;;;;;;;2.50;2.30;;;24.20;49.60;;;;;;6157767;23;20947;-69
2023/06/02 12:24:28;;;;;;;2.47;2.27;;;24.10;49.50;;;;;;6184723;23;20415;-69
2023/06/02 12:26:54;;;;;;;3.10;2.20;;;24.20;49.60;;;;;;6184191;23;20371;-69
2023/06/02 12:29:19;;;;;;;3.13;2.73;;;24.10;49.60;;;;;;6184226;23;20413;-69
2023/06/02 12:31:45;;;;;;;3.40;2.40;;;24.10;49.60;;;;;;6184160;23;20156;-69
2023/06/02 12:34:10;;;;;;;2.73;2.53;;;24.20;49.60;;;;;;6184545;23;20171;-68
2023/06/02 12:36:37;;;;;;;3.80;2.53;;;24.20;49.70;;;;;;6184210;23;20178;-69
2023/06/02 12:39:04;;;;;;;2.50;2.30;;;24.20;49.70;;;;;;6184143;23;20148;-68
2023/06/02 12:41:31;;;;;;;2.70;2.50;;;24.20;49.70;;;;;;6184390;23;20454;-68
2023/06/02 12:43:56;;;;;;;3.40;2.93;;;24.20;49.70;;;;;;6184006;23;20394;-69
2023/06/02 12:46:22;;;;;;;2.40;2.20;;;24.20;49.70;;;;;;6184177;23;20375;-68
2023/06/02 12:48:47;;;;;;;2.13;2.00;;;24.20;49.70;;;;;;6183938;23;20148;-69
2023/06/02 12:51:13;;;;;;;2.40;2.20;;;24.20;49.70;;;;;;6184142;23;20148;-69